sensor_id;sensor_type;location;lat;lon;timestamp;temperature;humidity
18930;DHT22;43305;52.186;5.598;2022-07-12T00:02:16;16.10;99.90
18930;DHT22;43305;52.186;5.598;2022-07-12T00:04:43;16.20;99.90
18930;DHT22;43305;52.186;5.598;2022-07-12T00:07:12;16.20;99.90
18930;DHT22;43305;52.186;5.598;2022-07-12T00:09:38;16.10;99.90
18930;DHT22;43305;52.186;5.598;2022-07-12T00:12:05;16.10;99.90
18930;DHT22;43305;52.186;5.598;2022-07-12T00:14:33;16.00;99.90
18930;DHT22;43305;52.186;5.598;2022-07-12T00:17:00;16.00;99.90
18930;DHT22;43305;52.186;5.598;2022-07-12T00:19:28;16.00;99.90
18930;DHT22;43305;52.186;5.598;2022-07-12T00:21:54;15.90;99.90
18930;DHT22;43305;52.186;5.598;2022-07-12T00:24:23;15.90;99.90
18930;DHT22;43305;52.186;5.598;2022-07-12T00:26:49;15.80;99.90
18930;DHT22;43305;52.186;5.598;2022-07-12T00:29:18;15.80;99.90
18930;DHT22;43305;52.186;5.598;2022-07-12T00:31:44;15.90;99.90
18930;DHT22;43305;52.186;5.598;2022-07-12T00:34:11;15.80;99.90
18930;DHT22;43305;52.186;5.598;2022-07-12T00:36:37;15.70;99.90
18930;DHT22;43305;52.186;5.598;2022-07-12T00:39:04;15.70;99.90
18930;DHT22;43305;52.186;5.598;2022-07-12T00:41:32;15.70;99.90
18930;DHT22;43305;52.186;5.598;2022-07-12T00:43:59;15.60;99.90
18930;DHT22;43305;52.186;5.598;2022-07-12T00:46:26;15.70;99.90
18930;DHT22;43305;52.186;5.598;2022-07-12T00:48:53;15.60;99.90
18930;DHT22;43305;52.186;5.598;2022-07-12T00:51:20;15.60;99.90
18930;DHT22;43305;52.186;5.598;2022-07-12T00:53:47;15.50;99.90
18930;DHT22;43305;52.186;5.598;2022-07-12T00:56:14;15.60;99.90
18930;DHT22;43305;52.186;5.598;2022-07-12T00:58:43;15.60;99.90
18930;DHT22;43305;52.186;5.598;2022-07-12T01:01:10;15.50;99.90
18930;DHT22;43305;52.186;5.598;2022-07-12T01:03:37;15.60;99.90
18930;DHT22;43305;52.186;5.598;2022-07-12T01:06:06;15.50;99.90
18930;DHT22;43305;52.186;5.598;2022-07-12T01:08:33;15.50;99.90
18930;DHT22;43305;52.186;5.598;2022-07-12T01:11:01;15.50;99.90
18930;DHT22;43305;52.186;5.598;2022-07-12T01:13:48;15.50;99.90
18930;DHT22;43305;52.186;5.598;2022-07-12T01:16:17;15.50;99.90
18930;DHT22;43305;52.186;5.598;2022-07-12T01:18:44;15.40;99.90
18930;DHT22;43305;52.186;5.598;2022-07-12T01:21:18;15.40;99.90
18930;DHT22;43305;52.186;5.598;2022-07-12T01:23:47;15.40;99.90
18930;DHT22;43305;52.186;5.598;2022-07-12T01:26:15;15.30;99.90
18930;DHT22;43305;52.186;5.598;2022-07-12T01:28:42;15.30;99.90
18930;DHT22;43305;52.186;5.598;2022-07-12T01:31:09;15.30;99.90
18930;DHT22;43305;52.186;5.598;2022-07-12T01:33:36;15.20;99.90
18930;DHT22;43305;52.186;5.598;2022-07-12T01:36:03;15.20;99.90
18930;DHT22;43305;52.186;5.598;2022-07-12T01:38:30;15.20;99.90
18930;DHT22;43305;52.186;5.598;2022-07-12T01:40:59;15.10;99.90
18930;DHT22;43305;52.186;5.598;2022-07-12T01:43:27;15.10;99.90
18930;DHT22;43305;52.186;5.598;2022-07-12T01:45:54;15.10;99.90
18930;DHT22;43305;52.186;5.598;2022-07-12T01:48:21;15.10;99.90
18930;DHT22;43305;52.186;5.598;2022-07-12T01:50:48;15.00;99.90
18930;DHT22;43305;52.186;5.598;2022-07-12T01:53:15;14.90;99.90
18930;DHT22;43305;52.186;5.598;2022-07-12T01:55:42;14.90;99.90
18930;DHT22;43305;52.186;5.598;2022-07-12T01:58:13;14.90;99.90
18930;DHT22;43305;52.186;5.598;2022-07-12T02:00:40;14.90;99.90
18930;DHT22;43305;52.186;5.598;2022-07-12T02:03:08;14.90;99.90
18930;DHT22;43305;52.186;5.598;2022-07-12T02:05:34;14.80;99.90
18930;DHT22;43305;52.186;5.598;2022-07-12T02:08:01;14.80;99.90
18930;DHT22;43305;52.186;5.598;2022-07-12T02:10:29;14.80;99.90
18930;DHT22;43305;52.186;5.598;2022-07-12T02:12:56;14.70;99.90
18930;DHT22;43305;52.186;5.598;2022-07-12T02:15:24;14.70;99.90
18930;DHT22;43305;52.186;5.598;2022-07-12T02:17:51;14.70;99.90
18930;DHT22;43305;52.186;5.598;2022-07-12T02:20:18;14.70;99.90
18930;DHT22;43305;52.186;5.598;2022-07-12T02:22:45;14.70;99.90
18930;DHT22;43305;52.186;5.598;2022-07-12T02:25:12;14.70;99.90
18930;DHT22;43305;52.186;5.598;2022-07-12T02:27:39;14.70;99.90
18930;DHT22;43305;52.186;5.598;2022-07-12T02:30:07;14.70;99.90
18930;DHT22;43305;52.186;5.598;2022-07-12T02:32:36;14.60;99.90
18930;DHT22;43305;52.186;5.598;2022-07-12T02:35:04;14.60;99.90
18930;DHT22;43305;52.186;5.598;2022-07-12T02:37:31;14.70;99.90
18930;DHT22;43305;52.186;5.598;2022-07-12T02:39:58;14.70;99.90
18930;DHT22;43305;52.186;5.598;2022-07-12T02:42:38;14.60;99.90
18930;DHT22;43305;52.186;5.598;2022-07-12T02:45:06;14.60;99.90
18930;DHT22;43305;52.186;5.598;2022-07-12T02:47:37;14.50;99.90
18930;DHT22;43305;52.186;5.598;2022-07-12T02:50:05;14.50;99.90
18930;DHT22;43305;52.186;5.598;2022-07-12T02:52:32;14.40;99.90
18930;DHT22;43305;52.186;5.598;2022-07-12T02:54:59;14.40;99.90
18930;DHT22;43305;52.186;5.598;2022-07-12T02:57:26;14.50;99.90
18930;DHT22;43305;52.186;5.598;2022-07-12T02:59:53;14.50;99.90
18930;DHT22;43305;52.186;5.598;2022-07-12T03:02:19;14.40;99.90
18930;DHT22;43305;52.186;5.598;2022-07-12T03:04:48;14.40;99.90
18930;DHT22;43305;52.186;5.598;2022-07-12T03:07:14;14.40;99.90
18930;DHT22;43305;52.186;5.598;2022-07-12T03:09:41;14.40;99.90
18930;DHT22;43305;52.186;5.598;2022-07-12T03:12:08;14.40;99.90
18930;DHT22;43305;52.186;5.598;2022-07-12T03:14:35;14.30;99.90
18930;DHT22;43305;52.186;5.598;2022-07-12T03:17:02;14.30;99.90
18930;DHT22;43305;52.186;5.598;2022-07-12T03:19:29;14.30;99.90
18930;DHT22;43305;52.186;5.598;2022-07-12T03:21:57;14.30;99.90
18930;DHT22;43305;52.186;5.598;2022-07-12T03:24:24;14.30;99.90
18930;DHT22;43305;52.186;5.598;2022-07-12T03:26:51;14.30;99.90
18930;DHT22;43305;52.186;5.598;2022-07-12T03:29:18;14.20;99.90
18930;DHT22;43305;52.186;5.598;2022-07-12T03:31:45;14.20;99.90
18930;DHT22;43305;52.186;5.598;2022-07-12T03:34:12;14.30;99.90
18930;DHT22;43305;52.186;5.598;2022-07-12T03:36:41;14.30;99.90
18930;DHT22;43305;52.186;5.598;2022-07-12T03:39:09;14.20;99.90
18930;DHT22;43305;52.186;5.598;2022-07-12T03:41:36;14.20;99.90
18930;DHT22;43305;52.186;5.598;2022-07-12T03:44:03;14.20;99.90
18930;DHT22;43305;52.186;5.598;2022-07-12T03:46:31;14.30;99.90
18930;DHT22;43305;52.186;5.598;2022-07-12T03:48:58;14.20;99.90
18930;DHT22;43305;52.186;5.598;2022-07-12T03:51:25;14.20;99.90
18930;DHT22;43305;52.186;5.598;2022-07-12T03:53:52;14.30;99.90
18930;DHT22;43305;52.186;5.598;2022-07-12T03:56:20;14.30;99.90
18930;DHT22;43305;52.186;5.598;2022-07-12T03:59:01;14.30;99.90
18930;DHT22;43305;52.186;5.598;2022-07-12T04:01:27;14.30;99.90
18930;DHT22;43305;52.186;5.598;2022-07-12T04:03:55;14.30;99.90
18930;DHT22;43305;52.186;5.598;2022-07-12T04:06:24;14.30;99.90
18930;DHT22;43305;52.186;5.598;2022-07-12T04:08:51;14.40;99.90
18930;DHT22;43305;52.186;5.598;2022-07-12T04:11:19;14.40;99.90
18930;DHT22;43305;52.186;5.598;2022-07-12T04:13:46;14.40;99.90
18930;DHT22;43305;52.186;5.598;2022-07-12T04:16:12;14.40;99.90
18930;DHT22;43305;52.186;5.598;2022-07-12T04:18:39;14.40;99.90
18930;DHT22;43305;52.186;5.598;2022-07-12T04:21:06;14.40;99.90
18930;DHT22;43305;52.186;5.598;2022-07-12T04:23:33;14.50;99.90
18930;DHT22;43305;52.186;5.598;2022-07-12T04:25:59;14.50;99.90
18930;DHT22;43305;52.186;5.598;2022-07-12T04:28:27;14.50;99.90
18930;DHT22;43305;52.186;5.598;2022-07-12T04:30:54;14.50;99.90
18930;DHT22;43305;52.186;5.598;2022-07-12T04:33:21;14.50;99.90
18930;DHT22;43305;52.186;5.598;2022-07-12T04:35:48;14.50;99.90
18930;DHT22;43305;52.186;5.598;2022-07-12T04:38:15;14.50;99.90
18930;DHT22;43305;52.186;5.598;2022-07-12T04:40:42;14.50;99.90
18930;DHT22;43305;52.186;5.598;2022-07-12T04:43:08;14.60;99.90
18930;DHT22;43305;52.186;5.598;2022-07-12T04:45:37;14.60;99.90
18930;DHT22;43305;52.186;5.598;2022-07-12T04:48:04;14.70;99.90
18930;DHT22;43305;52.186;5.598;2022-07-12T04:50:31;14.80;99.90
18930;DHT22;43305;52.186;5.598;2022-07-12T04:52:58;14.90;99.90
18930;DHT22;43305;52.186;5.598;2022-07-12T04:55:24;15.00;99.90
18930;DHT22;43305;52.186;5.598;2022-07-12T04:57:51;15.10;99.90
18930;DHT22;43305;52.186;5.598;2022-07-12T05:00:18;15.20;99.90
18930;DHT22;43305;52.186;5.598;2022-07-12T05:02:48;15.40;99.90
18930;DHT22;43305;52.186;5.598;2022-07-12T05:05:15;15.60;99.90
18930;DHT22;43305;52.186;5.598;2022-07-12T05:07:41;15.80;99.90
18930;DHT22;43305;52.186;5.598;2022-07-12T05:10:08;15.90;99.90
18930;DHT22;43305;52.186;5.598;2022-07-12T05:12:54;16.10;99.90
18930;DHT22;43305;52.186;5.598;2022-07-12T05:15:20;16.20;99.90
18930;DHT22;43305;52.186;5.598;2022-07-12T05:17:49;16.30;99.90
18930;DHT22;43305;52.186;5.598;2022-07-12T05:20:16;16.20;99.90
18930;DHT22;43305;52.186;5.598;2022-07-12T05:22:42;16.20;99.90
18930;DHT22;43305;52.186;5.598;2022-07-12T05:25:11;16.10;99.90
18930;DHT22;43305;52.186;5.598;2022-07-12T05:27:38;16.10;99.90
18930;DHT22;43305;52.186;5.598;2022-07-12T05:30:05;16.10;99.90
18930;DHT22;43305;52.186;5.598;2022-07-12T05:32:32;16.40;99.90
18930;DHT22;43305;52.186;5.598;2022-07-12T05:35:00;16.70;99.90
18930;DHT22;43305;52.186;5.598;2022-07-12T05:37:27;17.10;99.90
18930;DHT22;43305;52.186;5.598;2022-07-12T05:39:54;17.40;99.90
18930;DHT22;43305;52.186;5.598;2022-07-12T05:42:20;17.70;99.90
18930;DHT22;43305;52.186;5.598;2022-07-12T05:44:47;17.90;99.90
18930;DHT22;43305;52.186;5.598;2022-07-12T05:47:14;18.10;99.90
18930;DHT22;43305;52.186;5.598;2022-07-12T05:49:41;18.20;99.90
18930;DHT22;43305;52.186;5.598;2022-07-12T05:52:09;18.40;99.90
18930;DHT22;43305;52.186;5.598;2022-07-12T05:54:49;18.50;99.90
18930;DHT22;43305;52.186;5.598;2022-07-12T05:57:16;18.70;99.90
18930;DHT22;43305;52.186;5.598;2022-07-12T05:59:43;18.80;99.90
18930;DHT22;43305;52.186;5.598;2022-07-12T06:02:10;18.90;99.90
18930;DHT22;43305;52.186;5.598;2022-07-12T06:04:37;18.80;99.90
18930;DHT22;43305;52.186;5.598;2022-07-12T06:07:04;18.80;99.90
18930;DHT22;43305;52.186;5.598;2022-07-12T06:09:32;18.70;99.90
18930;DHT22;43305;52.186;5.598;2022-07-12T06:11:58;18.60;99.90
18930;DHT22;43305;52.186;5.598;2022-07-12T06:14:25;18.50;99.90
18930;DHT22;43305;52.186;5.598;2022-07-12T06:16:52;18.50;99.90
18930;DHT22;43305;52.186;5.598;2022-07-12T06:19:18;18.60;99.90
18930;DHT22;43305;52.186;5.598;2022-07-12T06:21:45;18.60;99.90
18930;DHT22;43305;52.186;5.598;2022-07-12T06:24:12;18.70;99.90
18930;DHT22;43305;52.186;5.598;2022-07-12T06:26:40;18.80;99.90
18930;DHT22;43305;52.186;5.598;2022-07-12T06:29:07;18.80;99.90
18930;DHT22;43305;52.186;5.598;2022-07-12T06:31:34;18.80;99.90
18930;DHT22;43305;52.186;5.598;2022-07-12T06:34:01;19.00;99.90
18930;DHT22;43305;52.186;5.598;2022-07-12T06:36:28;19.10;99.90
18930;DHT22;43305;52.186;5.598;2022-07-12T06:38:55;19.20;99.90
18930;DHT22;43305;52.186;5.598;2022-07-12T06:41:22;19.40;99.90
18930;DHT22;43305;52.186;5.598;2022-07-12T06:43:51;19.60;99.90
18930;DHT22;43305;52.186;5.598;2022-07-12T06:46:18;19.80;99.90
18930;DHT22;43305;52.186;5.598;2022-07-12T06:48:45;20.00;99.90
18930;DHT22;43305;52.186;5.598;2022-07-12T06:51:11;20.10;99.90
18930;DHT22;43305;52.186;5.598;2022-07-12T06:53:38;20.10;99.90
18930;DHT22;43305;52.186;5.598;2022-07-12T06:56:05;20.10;99.90
18930;DHT22;43305;52.186;5.598;2022-07-12T06:58:32;20.20;99.90
18930;DHT22;43305;52.186;5.598;2022-07-12T07:01:00;20.40;99.90
18930;DHT22;43305;52.186;5.598;2022-07-12T07:03:27;20.40;99.90
18930;DHT22;43305;52.186;5.598;2022-07-12T07:05:58;20.60;99.90
18930;DHT22;43305;52.186;5.598;2022-07-12T07:08:25;20.80;99.90
18930;DHT22;43305;52.186;5.598;2022-07-12T07:10:52;20.80;99.90
18930;DHT22;43305;52.186;5.598;2022-07-12T07:13:21;21.00;99.90
18930;DHT22;43305;52.186;5.598;2022-07-12T07:15:48;20.90;99.90
18930;DHT22;43305;52.186;5.598;2022-07-12T07:18:16;20.90;99.90
18930;DHT22;43305;52.186;5.598;2022-07-12T07:20:43;21.00;99.90
18930;DHT22;43305;52.186;5.598;2022-07-12T07:23:10;21.00;99.90
18930;DHT22;43305;52.186;5.598;2022-07-12T07:25:43;20.90;99.90
18930;DHT22;43305;52.186;5.598;2022-07-12T07:28:10;20.90;99.90
18930;DHT22;43305;52.186;5.598;2022-07-12T07:30:37;20.80;99.90
18930;DHT22;43305;52.186;5.598;2022-07-12T07:33:19;20.90;99.90
18930;DHT22;43305;52.186;5.598;2022-07-12T07:35:46;21.00;99.90
18930;DHT22;43305;52.186;5.598;2022-07-12T07:38:13;21.20;99.90
18930;DHT22;43305;52.186;5.598;2022-07-12T07:40:40;21.40;99.90
18930;DHT22;43305;52.186;5.598;2022-07-12T07:43:06;21.70;99.90
18930;DHT22;43305;52.186;5.598;2022-07-12T07:45:33;22.00;99.90
18930;DHT22;43305;52.186;5.598;2022-07-12T07:48:00;22.10;99.90
18930;DHT22;43305;52.186;5.598;2022-07-12T07:50:30;22.20;99.90
18930;DHT22;43305;52.186;5.598;2022-07-12T07:52:56;22.50;99.90
18930;DHT22;43305;52.186;5.598;2022-07-12T07:55:23;22.60;99.90
18930;DHT22;43305;52.186;5.598;2022-07-12T07:57:50;22.50;99.90
18930;DHT22;43305;52.186;5.598;2022-07-12T08:00:17;22.40;99.90
18930;DHT22;43305;52.186;5.598;2022-07-12T08:02:44;22.30;99.90
18930;DHT22;43305;52.186;5.598;2022-07-12T08:05:11;22.50;99.90
18930;DHT22;43305;52.186;5.598;2022-07-12T08:07:39;22.70;99.90
18930;DHT22;43305;52.186;5.598;2022-07-12T08:10:08;22.90;99.90
18930;DHT22;43305;52.186;5.598;2022-07-12T08:12:35;23.00;99.90
18930;DHT22;43305;52.186;5.598;2022-07-12T08:15:11;23.10;99.90
18930;DHT22;43305;52.186;5.598;2022-07-12T08:17:38;23.30;99.90
18930;DHT22;43305;52.186;5.598;2022-07-12T08:20:09;23.50;99.90
18930;DHT22;43305;52.186;5.598;2022-07-12T08:22:45;23.60;99.90
18930;DHT22;43305;52.186;5.598;2022-07-12T08:25:16;23.60;99.90
18930;DHT22;43305;52.186;5.598;2022-07-12T08:27:56;23.70;99.90
18930;DHT22;43305;52.186;5.598;2022-07-12T08:30:23;23.70;99.90
18930;DHT22;43305;52.186;5.598;2022-07-12T08:32:57;23.60;99.90
18930;DHT22;43305;52.186;5.598;2022-07-12T08:35:34;23.60;99.90
18930;DHT22;43305;52.186;5.598;2022-07-12T08:38:06;23.70;99.90
18930;DHT22;43305;52.186;5.598;2022-07-12T08:40:55;23.70;99.90
18930;DHT22;43305;52.186;5.598;2022-07-12T08:43:24;23.80;99.90
18930;DHT22;43305;52.186;5.598;2022-07-12T08:46:01;23.50;99.90
18930;DHT22;43305;52.186;5.598;2022-07-12T08:48:32;23.40;99.90
18930;DHT22;43305;52.186;5.598;2022-07-12T08:51:07;23.30;99.90
18930;DHT22;43305;52.186;5.598;2022-07-12T08:53:39;23.40;99.90
18930;DHT22;43305;52.186;5.598;2022-07-12T08:56:30;23.50;99.90
18930;DHT22;43305;52.186;5.598;2022-07-12T08:59:13;23.40;99.90
18930;DHT22;43305;52.186;5.598;2022-07-12T09:05:20;23.20;99.90
18930;DHT22;43305;52.186;5.598;2022-07-12T09:08:09;23.40;99.90
18930;DHT22;43305;52.186;5.598;2022-07-12T09:10:55;23.50;99.90
18930;DHT22;43305;52.186;5.598;2022-07-12T09:13:58;23.60;99.90
18930;DHT22;43305;52.186;5.598;2022-07-12T09:16:39;23.70;99.90
18930;DHT22;43305;52.186;5.598;2022-07-12T09:19:16;23.90;99.90
18930;DHT22;43305;52.186;5.598;2022-07-12T09:21:56;23.90;99.90
18930;DHT22;43305;52.186;5.598;2022-07-12T09:24:24;24.20;99.90
18930;DHT22;43305;52.186;5.598;2022-07-12T09:27:00;24.20;99.90
18930;DHT22;43305;52.186;5.598;2022-07-12T09:33:00;24.30;99.90
18930;DHT22;43305;52.186;5.598;2022-07-12T09:36:08;24.10;99.90
18930;DHT22;43305;52.186;5.598;2022-07-12T09:38:59;24.10;99.90
18930;DHT22;43305;52.186;5.598;2022-07-12T09:41:32;23.90;99.90
18930;DHT22;43305;52.186;5.598;2022-07-12T09:47:32;24.40;99.90
18930;DHT22;43305;52.186;5.598;2022-07-12T09:50:09;24.60;99.90
18930;DHT22;43305;52.186;5.598;2022-07-12T09:52:59;24.70;99.90
18930;DHT22;43305;52.186;5.598;2022-07-12T09:55:35;24.80;99.90
18930;DHT22;43305;52.186;5.598;2022-07-12T09:58:43;24.80;99.90
18930;DHT22;43305;52.186;5.598;2022-07-12T10:01:16;24.60;99.90
18930;DHT22;43305;52.186;5.598;2022-07-12T10:03:46;24.60;99.90
18930;DHT22;43305;52.186;5.598;2022-07-12T10:06:24;24.60;99.90
18930;DHT22;43305;52.186;5.598;2022-07-12T10:08:57;24.60;99.90
18930;DHT22;43305;52.186;5.598;2022-07-12T10:11:25;24.70;99.90
18930;DHT22;43305;52.186;5.598;2022-07-12T10:14:00;24.80;99.90
18930;DHT22;43305;52.186;5.598;2022-07-12T10:16:27;25.00;99.90
18930;DHT22;43305;52.186;5.598;2022-07-12T10:22:19;25.30;99.90
18930;DHT22;43305;52.186;5.598;2022-07-12T10:24:48;25.40;99.90
18930;DHT22;43305;52.186;5.598;2022-07-12T10:27:32;25.30;99.90
18930;DHT22;43305;52.186;5.598;2022-07-12T10:30:17;25.30;99.90
18930;DHT22;43305;52.186;5.598;2022-07-12T10:32:48;25.40;99.90
18930;DHT22;43305;52.186;5.598;2022-07-12T10:35:18;25.40;99.90
18930;DHT22;43305;52.186;5.598;2022-07-12T10:40:44;25.20;99.90
18930;DHT22;43305;52.186;5.598;2022-07-12T10:43:15;25.50;99.90
18930;DHT22;43305;52.186;5.598;2022-07-12T10:45:45;25.70;99.90
18930;DHT22;43305;52.186;5.598;2022-07-12T10:48:35;25.80;99.90
18930;DHT22;43305;52.186;5.598;2022-07-12T10:51:43;25.80;99.90
18930;DHT22;43305;52.186;5.598;2022-07-12T10:54:30;25.50;99.90
18930;DHT22;43305;52.186;5.598;2022-07-12T10:56:59;25.70;99.90
18930;DHT22;43305;52.186;5.598;2022-07-12T10:59:30;25.80;99.90
18930;DHT22;43305;52.186;5.598;2022-07-12T11:01:57;26.00;99.90
18930;DHT22;43305;52.186;5.598;2022-07-12T11:04:27;26.10;99.90
18930;DHT22;43305;52.186;5.598;2022-07-12T11:06:55;25.90;99.90
18930;DHT22;43305;52.186;5.598;2022-07-12T11:09:26;26.00;99.90
18930;DHT22;43305;52.186;5.598;2022-07-12T11:12:07;25.80;99.90
18930;DHT22;43305;52.186;5.598;2022-07-12T11:14:35;25.90;99.90
18930;DHT22;43305;52.186;5.598;2022-07-12T11:17:03;25.90;99.90
18930;DHT22;43305;52.186;5.598;2022-07-12T11:19:35;25.90;99.90
18930;DHT22;43305;52.186;5.598;2022-07-12T11:22:19;26.10;99.90
18930;DHT22;43305;52.186;5.598;2022-07-12T11:24:56;26.20;99.90
18930;DHT22;43305;52.186;5.598;2022-07-12T11:27:42;26.10;99.90
18930;DHT22;43305;52.186;5.598;2022-07-12T11:30:17;26.20;99.90
18930;DHT22;43305;52.186;5.598;2022-07-12T11:32:58;26.30;99.90
18930;DHT22;43305;52.186;5.598;2022-07-12T11:35:37;26.40;99.90
18930;DHT22;43305;52.186;5.598;2022-07-12T11:38:30;26.30;99.90
18930;DHT22;43305;52.186;5.598;2022-07-12T11:40:58;26.50;99.90
18930;DHT22;43305;52.186;5.598;2022-07-12T11:43:27;26.40;99.90
18930;DHT22;43305;52.186;5.598;2022-07-12T11:46:00;26.40;99.90
18930;DHT22;43305;52.186;5.598;2022-07-12T11:48:27;26.60;99.90
18930;DHT22;43305;52.186;5.598;2022-07-12T11:51:02;26.60;99.90
18930;DHT22;43305;52.186;5.598;2022-07-12T11:53:35;26.60;99.90
18930;DHT22;43305;52.186;5.598;2022-07-12T11:56:03;26.60;99.90
18930;DHT22;43305;52.186;5.598;2022-07-12T11:58:32;26.60;99.90
18930;DHT22;43305;52.186;5.598;2022-07-12T12:01:03;26.60;99.90
18930;DHT22;43305;52.186;5.598;2022-07-12T12:03:41;26.80;99.90
18930;DHT22;43305;52.186;5.598;2022-07-12T12:06:08;26.90;99.90
18930;DHT22;43305;52.186;5.598;2022-07-12T12:08:38;26.90;99.90
18930;DHT22;43305;52.186;5.598;2022-07-12T12:11:05;26.90;99.90
18930;DHT22;43305;52.186;5.598;2022-07-12T12:13:56;26.90;99.90
18930;DHT22;43305;52.186;5.598;2022-07-12T12:19:11;27.00;99.90
18930;DHT22;43305;52.186;5.598;2022-07-12T12:21:47;27.10;99.90
18930;DHT22;43305;52.186;5.598;2022-07-12T12:27:42;27.40;99.90
18930;DHT22;43305;52.186;5.598;2022-07-12T12:30:14;27.50;99.90
18930;DHT22;43305;52.186;5.598;2022-07-12T12:32:54;27.60;99.90
18930;DHT22;43305;52.186;5.598;2022-07-12T12:35:29;27.70;99.90
18930;DHT22;43305;52.186;5.598;2022-07-12T12:38:03;27.60;99.90
18930;DHT22;43305;52.186;5.598;2022-07-12T12:40:33;27.60;99.90
18930;DHT22;43305;52.186;5.598;2022-07-12T12:43:13;27.50;99.90
18930;DHT22;43305;52.186;5.598;2022-07-12T12:46:00;27.60;99.90
18930;DHT22;43305;52.186;5.598;2022-07-12T12:49:04;27.70;99.90
18930;DHT22;43305;52.186;5.598;2022-07-12T12:51:53;27.90;99.90
18930;DHT22;43305;52.186;5.598;2022-07-12T12:54:57;27.90;99.90
18930;DHT22;43305;52.186;5.598;2022-07-12T12:57:24;28.20;99.90
18930;DHT22;43305;52.186;5.598;2022-07-12T12:59:52;28.30;99.90
18930;DHT22;43305;52.186;5.598;2022-07-12T13:02:33;28.00;99.90
18930;DHT22;43305;52.186;5.598;2022-07-12T13:05:00;28.00;99.90
18930;DHT22;43305;52.186;5.598;2022-07-12T13:07:29;28.10;99.90
18930;DHT22;43305;52.186;5.598;2022-07-12T13:10:00;28.10;99.90
18930;DHT22;43305;52.186;5.598;2022-07-12T13:12:35;28.00;99.90
18930;DHT22;43305;52.186;5.598;2022-07-12T13:15:09;28.00;99.90
18930;DHT22;43305;52.186;5.598;2022-07-12T13:17:37;28.10;99.90
18930;DHT22;43305;52.186;5.598;2022-07-12T13:20:21;28.40;99.90
18930;DHT22;43305;52.186;5.598;2022-07-12T13:22:48;28.60;99.90
18930;DHT22;43305;52.186;5.598;2022-07-12T13:25:16;28.60;99.90
18930;DHT22;43305;52.186;5.598;2022-07-12T13:27:55;28.80;99.90
18930;DHT22;43305;52.186;5.598;2022-07-12T13:30:24;28.80;99.90
18930;DHT22;43305;52.186;5.598;2022-07-12T13:32:52;28.70;99.90
18930;DHT22;43305;52.186;5.598;2022-07-12T13:35:21;28.70;99.90
18930;DHT22;43305;52.186;5.598;2022-07-12T13:37:48;28.70;99.90
18930;DHT22;43305;52.186;5.598;2022-07-12T13:40:15;29.00;99.90
18930;DHT22;43305;52.186;5.598;2022-07-12T13:42:43;29.20;99.90
18930;DHT22;43305;52.186;5.598;2022-07-12T13:45:11;29.20;99.90
18930;DHT22;43305;52.186;5.598;2022-07-12T13:47:38;29.30;99.90
18930;DHT22;43305;52.186;5.598;2022-07-12T13:50:08;29.30;99.90
18930;DHT22;43305;52.186;5.598;2022-07-12T13:52:35;29.30;99.90
18930;DHT22;43305;52.186;5.598;2022-07-12T13:55:06;29.10;99.90
18930;DHT22;43305;52.186;5.598;2022-07-12T13:57:36;28.90;99.90
18930;DHT22;43305;52.186;5.598;2022-07-12T14:00:06;28.70;99.90
18930;DHT22;43305;52.186;5.598;2022-07-12T14:02:42;28.80;99.90
18930;DHT22;43305;52.186;5.598;2022-07-12T14:05:17;28.80;99.90
18930;DHT22;43305;52.186;5.598;2022-07-12T14:10:40;28.80;99.90
18930;DHT22;43305;52.186;5.598;2022-07-12T14:13:11;28.90;99.90
18930;DHT22;43305;52.186;5.598;2022-07-12T14:15:43;29.00;99.90
18930;DHT22;43305;52.186;5.598;2022-07-12T14:18:12;28.90;99.90
18930;DHT22;43305;52.186;5.598;2022-07-12T14:20:40;28.80;99.90
18930;DHT22;43305;52.186;5.598;2022-07-12T14:23:10;28.70;99.90
18930;DHT22;43305;52.186;5.598;2022-07-12T14:25:40;28.50;99.90
18930;DHT22;43305;52.186;5.598;2022-07-12T14:28:18;28.40;99.90
18930;DHT22;43305;52.186;5.598;2022-07-12T14:30:46;28.40;99.90
18930;DHT22;43305;52.186;5.598;2022-07-12T14:33:19;28.30;99.90
18930;DHT22;43305;52.186;5.598;2022-07-12T14:35:49;28.30;99.90
18930;DHT22;43305;52.186;5.598;2022-07-12T14:38:17;28.30;99.90
18930;DHT22;43305;52.186;5.598;2022-07-12T14:40:47;28.20;99.90
18930;DHT22;43305;52.186;5.598;2022-07-12T14:43:14;28.20;99.90
18930;DHT22;43305;52.186;5.598;2022-07-12T14:45:42;28.20;99.90
18930;DHT22;43305;52.186;5.598;2022-07-12T14:48:18;28.10;99.90
18930;DHT22;43305;52.186;5.598;2022-07-12T14:50:54;28.10;99.90
18930;DHT22;43305;52.186;5.598;2022-07-12T14:53:29;28.00;99.90
18930;DHT22;43305;52.186;5.598;2022-07-12T14:58:24;27.60;99.90
18930;DHT22;43305;52.186;5.598;2022-07-12T15:00:51;27.50;99.90
18930;DHT22;43305;52.186;5.598;2022-07-12T15:03:19;27.50;99.90
18930;DHT22;43305;52.186;5.598;2022-07-12T15:05:46;27.40;99.90
18930;DHT22;43305;52.186;5.598;2022-07-12T15:08:15;27.30;99.90
18930;DHT22;43305;52.186;5.598;2022-07-12T15:10:42;27.20;99.90
18930;DHT22;43305;52.186;5.598;2022-07-12T15:13:17;27.20;99.90
18930;DHT22;43305;52.186;5.598;2022-07-12T15:15:49;27.10;99.90
18930;DHT22;43305;52.186;5.598;2022-07-12T15:18:21;27.10;99.90
18930;DHT22;43305;52.186;5.598;2022-07-12T15:20:49;27.20;99.90
18930;DHT22;43305;52.186;5.598;2022-07-12T15:23:23;27.20;99.90
18930;DHT22;43305;52.186;5.598;2022-07-12T15:25:59;27.20;99.90
18930;DHT22;43305;52.186;5.598;2022-07-12T15:28:28;27.10;99.90
18930;DHT22;43305;52.186;5.598;2022-07-12T15:30:58;27.20;99.90
18930;DHT22;43305;52.186;5.598;2022-07-12T15:33:29;27.20;99.90
18930;DHT22;43305;52.186;5.598;2022-07-12T15:35:56;27.20;99.90
18930;DHT22;43305;52.186;5.598;2022-07-12T15:38:25;27.10;99.90
18930;DHT22;43305;52.186;5.598;2022-07-12T15:40:52;27.20;99.90
18930;DHT22;43305;52.186;5.598;2022-07-12T15:43:20;27.20;99.90
18930;DHT22;43305;52.186;5.598;2022-07-12T15:45:47;27.20;99.90
18930;DHT22;43305;52.186;5.598;2022-07-12T15:48:13;27.20;99.90
18930;DHT22;43305;52.186;5.598;2022-07-12T15:50:40;27.30;99.90
18930;DHT22;43305;52.186;5.598;2022-07-12T15:53:07;27.20;99.90
18930;DHT22;43305;52.186;5.598;2022-07-12T15:55:49;27.20;99.90
18930;DHT22;43305;52.186;5.598;2022-07-12T15:58:16;27.20;99.90
18930;DHT22;43305;52.186;5.598;2022-07-12T16:00:45;27.30;99.90
18930;DHT22;43305;52.186;5.598;2022-07-12T16:03:12;27.20;99.90
18930;DHT22;43305;52.186;5.598;2022-07-12T16:05:44;27.20;99.90
18930;DHT22;43305;52.186;5.598;2022-07-12T16:08:14;27.30;99.90
18930;DHT22;43305;52.186;5.598;2022-07-12T16:10:41;27.30;99.90
18930;DHT22;43305;52.186;5.598;2022-07-12T16:13:09;27.20;99.90
18930;DHT22;43305;52.186;5.598;2022-07-12T16:15:41;27.00;99.90
18930;DHT22;43305;52.186;5.598;2022-07-12T16:18:08;27.00;99.90
18930;DHT22;43305;52.186;5.598;2022-07-12T16:20:37;26.90;99.90